sensor_id;sensor_type;location;lat;lon;timestamp;temperature;humidity
32664;DHT22;19847;48.670;9.242;2022-09-16T00:00:53;13.50;99.90
32664;DHT22;19847;48.670;9.242;2022-09-16T00:04:15;13.50;99.90
32664;DHT22;19847;48.670;9.242;2022-09-16T00:07:37;13.50;99.90
32664;DHT22;19847;48.670;9.242;2022-09-16T00:10:59;13.50;99.90
32664;DHT22;19847;48.670;9.242;2022-09-16T00:14:22;13.50;99.90
32664;DHT22;19847;48.670;9.242;2022-09-16T00:17:44;13.50;99.90
32664;DHT22;19847;48.670;9.242;2022-09-16T00:21:09;13.50;99.90
32664;DHT22;19847;48.670;9.242;2022-09-16T00:24:31;13.50;99.90
32664;DHT22;19847;48.670;9.242;2022-09-16T00:27:52;13.50;99.90
32664;DHT22;19847;48.670;9.242;2022-09-16T00:31:15;13.40;99.90
32664;DHT22;19847;48.670;9.242;2022-09-16T00:34:37;13.40;99.90
32664;DHT22;19847;48.670;9.242;2022-09-16T00:37:59;13.40;99.90
32664;DHT22;19847;48.670;9.242;2022-09-16T00:41:21;13.40;99.90
32664;DHT22;19847;48.670;9.242;2022-09-16T00:44:51;13.40;99.90
32664;DHT22;19847;48.670;9.242;2022-09-16T00:48:15;13.30;99.90
32664;DHT22;19847;48.670;9.242;2022-09-16T00:51:39;13.30;99.90
32664;DHT22;19847;48.670;9.242;2022-09-16T00:55:05;13.30;99.90
32664;DHT22;19847;48.670;9.242;2022-09-16T00:58:29;13.30;99.90
32664;DHT22;19847;48.670;9.242;2022-09-16T01:01:52;13.20;99.90
32664;DHT22;19847;48.670;9.242;2022-09-16T01:05:17;13.20;99.90
32664;DHT22;19847;48.670;9.242;2022-09-16T01:08:41;13.20;99.90
32664;DHT22;19847;48.670;9.242;2022-09-16T01:12:03;13.20;99.90
32664;DHT22;19847;48.670;9.242;2022-09-16T01:15:25;13.20;99.90
32664;DHT22;19847;48.670;9.242;2022-09-16T01:18:51;13.20;99.90
32664;DHT22;19847;48.670;9.242;2022-09-16T01:22:20;13.20;99.90
32664;DHT22;19847;48.670;9.242;2022-09-16T01:25:48;13.20;99.90
32664;DHT22;19847;48.670;9.242;2022-09-16T01:29:20;13.10;99.90
32664;DHT22;19847;48.670;9.242;2022-09-16T01:32:58;13.00;99.90
32664;DHT22;19847;48.670;9.242;2022-09-16T01:36:26;13.00;99.90
32664;DHT22;19847;48.670;9.242;2022-09-16T01:39:53;13.00;99.90
32664;DHT22;19847;48.670;9.242;2022-09-16T01:43:17;13.00;99.90
32664;DHT22;19847;48.670;9.242;2022-09-16T01:46:42;13.00;99.90
32664;DHT22;19847;48.670;9.242;2022-09-16T01:50:09;13.00;99.90
32664;DHT22;19847;48.670;9.242;2022-09-16T01:53:35;13.10;99.90
32664;DHT22;19847;48.670;9.242;2022-09-16T01:56:59;13.10;99.90
32664;DHT22;19847;48.670;9.242;2022-09-16T02:00:22;13.10;99.90
32664;DHT22;19847;48.670;9.242;2022-09-16T02:03:45;13.10;99.90
32664;DHT22;19847;48.670;9.242;2022-09-16T02:07:11;13.10;99.90
32664;DHT22;19847;48.670;9.242;2022-09-16T02:10:36;13.10;99.90
32664;DHT22;19847;48.670;9.242;2022-09-16T02:14:01;13.00;99.90
32664;DHT22;19847;48.670;9.242;2022-09-16T02:17:24;13.00;99.90
32664;DHT22;19847;48.670;9.242;2022-09-16T02:20:47;13.00;99.90
32664;DHT22;19847;48.670;9.242;2022-09-16T02:24:12;13.10;99.90
32664;DHT22;19847;48.670;9.242;2022-09-16T02:27:36;13.10;99.90
32664;DHT22;19847;48.670;9.242;2022-09-16T02:30:59;13.20;99.90
32664;DHT22;19847;48.670;9.242;2022-09-16T02:34:22;13.20;99.90
32664;DHT22;19847;48.670;9.242;2022-09-16T02:37:46;13.20;99.90
32664;DHT22;19847;48.670;9.242;2022-09-16T02:41:11;13.20;99.90
32664;DHT22;19847;48.670;9.242;2022-09-16T02:44:33;13.20;99.90
32664;DHT22;19847;48.670;9.242;2022-09-16T02:47:57;13.20;99.90
32664;DHT22;19847;48.670;9.242;2022-09-16T02:51:22;13.30;99.90
32664;DHT22;19847;48.670;9.242;2022-09-16T02:54:48;13.30;99.90
32664;DHT22;19847;48.670;9.242;2022-09-16T02:58:12;13.30;99.90
32664;DHT22;19847;48.670;9.242;2022-09-16T03:01:35;13.30;99.90
32664;DHT22;19847;48.670;9.242;2022-09-16T03:05:01;13.40;99.90
32664;DHT22;19847;48.670;9.242;2022-09-16T03:08:23;13.40;99.90
32664;DHT22;19847;48.670;9.242;2022-09-16T03:11:50;13.40;99.90
32664;DHT22;19847;48.670;9.242;2022-09-16T03:19:01;13.40;99.90
32664;DHT22;19847;48.670;9.242;2022-09-16T03:22:26;13.50;99.90
32664;DHT22;19847;48.670;9.242;2022-09-16T03:25:54;13.50;99.90
32664;DHT22;19847;48.670;9.242;2022-09-16T03:29:23;13.50;99.90
32664;DHT22;19847;48.670;9.242;2022-09-16T03:32:47;13.50;99.90
32664;DHT22;19847;48.670;9.242;2022-09-16T03:36:13;13.40;99.90
32664;DHT22;19847;48.670;9.242;2022-09-16T03:39:36;13.40;99.90
32664;DHT22;19847;48.670;9.242;2022-09-16T03:42:58;13.40;99.90
32664;DHT22;19847;48.670;9.242;2022-09-16T03:46:20;13.40;99.90
32664;DHT22;19847;48.670;9.242;2022-09-16T03:49:42;13.40;99.90
32664;DHT22;19847;48.670;9.242;2022-09-16T03:53:05;13.40;99.90
32664;DHT22;19847;48.670;9.242;2022-09-16T03:56:27;13.40;99.90
32664;DHT22;19847;48.670;9.242;2022-09-16T03:59:48;13.40;99.90
32664;DHT22;19847;48.670;9.242;2022-09-16T04:03:10;13.40;99.90
32664;DHT22;19847;48.670;9.242;2022-09-16T04:06:32;13.30;99.90
32664;DHT22;19847;48.670;9.242;2022-09-16T04:09:55;13.30;99.90
32664;DHT22;19847;48.670;9.242;2022-09-16T04:13:17;13.40;99.90
32664;DHT22;19847;48.670;9.242;2022-09-16T04:16:38;13.40;99.90
32664;DHT22;19847;48.670;9.242;2022-09-16T04:20:06;13.30;99.90
32664;DHT22;19847;48.670;9.242;2022-09-16T04:23:28;13.30;99.90
32664;DHT22;19847;48.670;9.242;2022-09-16T04:26:51;13.30;99.90
32664;DHT22;19847;48.670;9.242;2022-09-16T04:30:14;13.30;99.90
32664;DHT22;19847;48.670;9.242;2022-09-16T04:33:36;13.30;99.90
32664;DHT22;19847;48.670;9.242;2022-09-16T04:36:58;13.30;99.90
32664;DHT22;19847;48.670;9.242;2022-09-16T04:40:20;13.30;99.90
32664;DHT22;19847;48.670;9.242;2022-09-16T04:43:43;13.30;99.90
32664;DHT22;19847;48.670;9.242;2022-09-16T04:47:05;13.30;99.90
32664;DHT22;19847;48.670;9.242;2022-09-16T04:50:27;13.30;99.90
32664;DHT22;19847;48.670;9.242;2022-09-16T04:53:48;13.30;99.90
32664;DHT22;19847;48.670;9.242;2022-09-16T04:57:10;13.30;99.90
32664;DHT22;19847;48.670;9.242;2022-09-16T05:00:33;13.30;99.90
32664;DHT22;19847;48.670;9.242;2022-09-16T05:03:56;13.30;99.90
32664;DHT22;19847;48.670;9.242;2022-09-16T05:07:18;13.20;99.90
32664;DHT22;19847;48.670;9.242;2022-09-16T05:10:40;13.20;99.90
32664;DHT22;19847;48.670;9.242;2022-09-16T05:14:02;13.30;99.90
32664;DHT22;19847;48.670;9.242;2022-09-16T05:17:26;13.30;99.90
32664;DHT22;19847;48.670;9.242;2022-09-16T05:21:10;13.20;99.90
32664;DHT22;19847;48.670;9.242;2022-09-16T05:24:35;13.20;99.90
32664;DHT22;19847;48.670;9.242;2022-09-16T05:27:57;13.10;99.90
32664;DHT22;19847;48.670;9.242;2022-09-16T05:31:20;13.00;99.90
32664;DHT22;19847;48.670;9.242;2022-09-16T05:34:46;12.90;99.90
32664;DHT22;19847;48.670;9.242;2022-09-16T05:38:08;12.80;99.90
32664;DHT22;19847;48.670;9.242;2022-09-16T05:41:29;12.80;99.90
32664;DHT22;19847;48.670;9.242;2022-09-16T05:44:51;12.80;99.90
32664;DHT22;19847;48.670;9.242;2022-09-16T05:48:13;12.90;99.90
32664;DHT22;19847;48.670;9.242;2022-09-16T05:51:36;12.80;99.90
32664;DHT22;19847;48.670;9.242;2022-09-16T05:54:58;12.80;99.90
32664;DHT22;19847;48.670;9.242;2022-09-16T05:58:20;12.70;99.90
32664;DHT22;19847;48.670;9.242;2022-09-16T06:01:42;12.50;99.90
32664;DHT22;19847;48.670;9.242;2022-09-16T06:05:04;12.50;99.90
32664;DHT22;19847;48.670;9.242;2022-09-16T06:08:28;12.40;99.90
32664;DHT22;19847;48.670;9.242;2022-09-16T06:11:51;12.40;99.90
32664;DHT22;19847;48.670;9.242;2022-09-16T06:15:21;12.40;99.90
32664;DHT22;19847;48.670;9.242;2022-09-16T06:18:43;12.40;99.90
32664;DHT22;19847;48.670;9.242;2022-09-16T06:22:04;12.50;99.90
32664;DHT22;19847;48.670;9.242;2022-09-16T06:25:27;12.40;99.90
32664;DHT22;19847;48.670;9.242;2022-09-16T06:28:49;12.40;99.90
32664;DHT22;19847;48.670;9.242;2022-09-16T06:32:11;12.40;99.90
32664;DHT22;19847;48.670;9.242;2022-09-16T06:35:36;12.40;99.90
32664;DHT22;19847;48.670;9.242;2022-09-16T06:38:57;12.40;99.90
32664;DHT22;19847;48.670;9.242;2022-09-16T06:42:20;12.50;99.90
32664;DHT22;19847;48.670;9.242;2022-09-16T06:45:42;12.50;99.90
32664;DHT22;19847;48.670;9.242;2022-09-16T06:49:04;12.50;99.90
32664;DHT22;19847;48.670;9.242;2022-09-16T06:52:27;12.40;99.90
32664;DHT22;19847;48.670;9.242;2022-09-16T06:55:49;12.40;99.90
32664;DHT22;19847;48.670;9.242;2022-09-16T06:59:12;12.40;99.90
32664;DHT22;19847;48.670;9.242;2022-09-16T07:02:35;12.40;99.90
32664;DHT22;19847;48.670;9.242;2022-09-16T07:05:57;12.40;99.90
32664;DHT22;19847;48.670;9.242;2022-09-16T07:09:19;12.40;99.90
32664;DHT22;19847;48.670;9.242;2022-09-16T07:12:40;12.40;99.90
32664;DHT22;19847;48.670;9.242;2022-09-16T07:16:05;12.40;99.90
32664;DHT22;19847;48.670;9.242;2022-09-16T07:19:38;12.30;99.90
32664;DHT22;19847;48.670;9.242;2022-09-16T07:23:00;12.20;99.90
32664;DHT22;19847;48.670;9.242;2022-09-16T07:26:22;12.20;99.90
32664;DHT22;19847;48.670;9.242;2022-09-16T07:29:44;12.20;99.90
32664;DHT22;19847;48.670;9.242;2022-09-16T07:33:07;12.20;99.90
32664;DHT22;19847;48.670;9.242;2022-09-16T07:36:30;12.20;99.90
32664;DHT22;19847;48.670;9.242;2022-09-16T07:39:52;12.20;99.90
32664;DHT22;19847;48.670;9.242;2022-09-16T07:43:14;12.00;99.90
32664;DHT22;19847;48.670;9.242;2022-09-16T07:46:36;11.90;99.90
32664;DHT22;19847;48.670;9.242;2022-09-16T07:49:59;11.90;99.90
32664;DHT22;19847;48.670;9.242;2022-09-16T07:53:21;11.90;99.90
32664;DHT22;19847;48.670;9.242;2022-09-16T07:56:48;12.00;99.90
32664;DHT22;19847;48.670;9.242;2022-09-16T08:00:10;12.00;99.90
32664;DHT22;19847;48.670;9.242;2022-09-16T08:03:33;12.00;99.90
32664;DHT22;19847;48.670;9.242;2022-09-16T08:06:56;11.80;99.90
32664;DHT22;19847;48.670;9.242;2022-09-16T08:10:17;11.80;99.90
32664;DHT22;19847;48.670;9.242;2022-09-16T08:13:39;11.70;99.90
32664;DHT22;19847;48.670;9.242;2022-09-16T08:17:02;11.60;99.90
32664;DHT22;19847;48.670;9.242;2022-09-16T08:20:24;11.50;99.90
32664;DHT22;19847;48.670;9.242;2022-09-16T08:23:47;11.50;99.90
32664;DHT22;19847;48.670;9.242;2022-09-16T08:27:09;11.60;99.90
32664;DHT22;19847;48.670;9.242;2022-09-16T08:30:31;11.80;99.90
32664;DHT22;19847;48.670;9.242;2022-09-16T08:33:53;12.00;99.90
32664;DHT22;19847;48.670;9.242;2022-09-16T08:37:14;12.20;99.90
32664;DHT22;19847;48.670;9.242;2022-09-16T08:40:42;12.40;99.90
32664;DHT22;19847;48.670;9.242;2022-09-16T08:44:07;12.40;99.90
32664;DHT22;19847;48.670;9.242;2022-09-16T08:47:34;12.60;99.90
32664;DHT22;19847;48.670;9.242;2022-09-16T08:50:58;12.50;99.90
32664;DHT22;19847;48.670;9.242;2022-09-16T08:54:26;12.50;99.90
32664;DHT22;19847;48.670;9.242;2022-09-16T08:57:52;12.60;99.90
32664;DHT22;19847;48.670;9.242;2022-09-16T09:01:17;12.60;99.90
32664;DHT22;19847;48.670;9.242;2022-09-16T09:04:41;12.70;99.90
32664;DHT22;19847;48.670;9.242;2022-09-16T09:08:11;12.70;99.90
32664;DHT22;19847;48.670;9.242;2022-09-16T09:11:37;12.70;99.90
32664;DHT22;19847;48.670;9.242;2022-09-16T09:15:07;12.70;99.90
32664;DHT22;19847;48.670;9.242;2022-09-16T09:18:36;13.00;99.90
32664;DHT22;19847;48.670;9.242;2022-09-16T09:22:01;13.30;99.90
32664;DHT22;19847;48.670;9.242;2022-09-16T09:25:28;13.50;99.90
32664;DHT22;19847;48.670;9.242;2022-09-16T09:29:02;13.50;99.90
32664;DHT22;19847;48.670;9.242;2022-09-16T09:32:31;13.70;99.90
32664;DHT22;19847;48.670;9.242;2022-09-16T09:39:58;13.70;99.90
32664;DHT22;19847;48.670;9.242;2022-09-16T09:43:23;13.70;99.90
32664;DHT22;19847;48.670;9.242;2022-09-16T09:46:51;13.80;99.90
32664;DHT22;19847;48.670;9.242;2022-09-16T09:50:16;13.80;99.90
32664;DHT22;19847;48.670;9.242;2022-09-16T09:53:40;14.00;99.90
32664;DHT22;19847;48.670;9.242;2022-09-16T09:57:04;14.30;99.90
32664;DHT22;19847;48.670;9.242;2022-09-16T10:00:27;14.60;99.90
32664;DHT22;19847;48.670;9.242;2022-09-16T10:03:49;14.60;99.90
32664;DHT22;19847;48.670;9.242;2022-09-16T10:07:13;14.50;99.90
32664;DHT22;19847;48.670;9.242;2022-09-16T10:10:36;14.50;99.90
32664;DHT22;19847;48.670;9.242;2022-09-16T10:14:02;14.40;99.90
32664;DHT22;19847;48.670;9.242;2022-09-16T10:17:24;14.40;99.90
32664;DHT22;19847;48.670;9.242;2022-09-16T10:20:54;14.40;99.90
32664;DHT22;19847;48.670;9.242;2022-09-16T10:24:28;14.50;99.90
32664;DHT22;19847;48.670;9.242;2022-09-16T10:27:52;14.60;99.90
32664;DHT22;19847;48.670;9.242;2022-09-16T10:31:15;15.10;99.90
32664;DHT22;19847;48.670;9.242;2022-09-16T10:34:37;15.40;99.90
32664;DHT22;19847;48.670;9.242;2022-09-16T10:38:01;15.60;99.90
32664;DHT22;19847;48.670;9.242;2022-09-16T10:41:25;15.80;99.90
32664;DHT22;19847;48.670;9.242;2022-09-16T10:44:51;15.90;99.90
32664;DHT22;19847;48.670;9.242;2022-09-16T10:48:13;15.70;99.90
32664;DHT22;19847;48.670;9.242;2022-09-16T10:51:36;15.70;99.90
32664;DHT22;19847;48.670;9.242;2022-09-16T10:55:08;15.80;99.90
32664;DHT22;19847;48.670;9.242;2022-09-16T10:58:32;15.60;99.90
32664;DHT22;19847;48.670;9.242;2022-09-16T11:01:56;15.30;99.90
32664;DHT22;19847;48.670;9.242;2022-09-16T11:05:24;15.10;99.90
32664;DHT22;19847;48.670;9.242;2022-09-16T11:08:53;15.00;99.90
32664;DHT22;19847;48.670;9.242;2022-09-16T11:12:27;14.90;99.90
32664;DHT22;19847;48.670;9.242;2022-09-16T11:15:58;14.90;99.90
32664;DHT22;19847;48.670;9.242;2022-09-16T11:19:24;14.90;99.90
32664;DHT22;19847;48.670;9.242;2022-09-16T11:22:50;14.90;99.90
32664;DHT22;19847;48.670;9.242;2022-09-16T11:26:17;14.80;99.90
32664;DHT22;19847;48.670;9.242;2022-09-16T11:29:46;14.80;99.90
32664;DHT22;19847;48.670;9.242;2022-09-16T11:33:13;15.10;99.90
32664;DHT22;19847;48.670;9.242;2022-09-16T11:36:43;15.50;99.90
32664;DHT22;19847;48.670;9.242;2022-09-16T11:40:11;15.70;99.90
32664;DHT22;19847;48.670;9.242;2022-09-16T11:43:52;15.70;99.90
32664;DHT22;19847;48.670;9.242;2022-09-16T11:47:24;15.70;99.90
32664;DHT22;19847;48.670;9.242;2022-09-16T11:50:54;15.60;99.90
32664;DHT22;19847;48.670;9.242;2022-09-16T11:54:24;15.20;99.90
32664;DHT22;19847;48.670;9.242;2022-09-16T11:57:49;15.20;99.90
32664;DHT22;19847;48.670;9.242;2022-09-16T12:01:14;15.20;99.90
32664;DHT22;19847;48.670;9.242;2022-09-16T12:04:40;15.40;99.90
32664;DHT22;19847;48.670;9.242;2022-09-16T12:08:06;15.60;99.90
32664;DHT22;19847;48.670;9.242;2022-09-16T12:11:32;15.80;99.90
32664;DHT22;19847;48.670;9.242;2022-09-16T12:14:55;16.00;99.90
32664;DHT22;19847;48.670;9.242;2022-09-16T12:18:26;16.30;99.90
32664;DHT22;19847;48.670;9.242;2022-09-16T12:21:52;16.50;99.90
32664;DHT22;19847;48.670;9.242;2022-09-16T12:25:21;16.80;99.90
32664;DHT22;19847;48.670;9.242;2022-09-16T12:28:45;17.00;99.90
32664;DHT22;19847;48.670;9.242;2022-09-16T12:32:10;17.40;99.90
32664;DHT22;19847;48.670;9.242;2022-09-16T12:35:38;17.50;99.90
32664;DHT22;19847;48.670;9.242;2022-09-16T12:39:01;17.50;99.90
32664;DHT22;19847;48.670;9.242;2022-09-16T12:46:15;17.20;99.90
32664;DHT22;19847;48.670;9.242;2022-09-16T12:49:47;17.00;99.90
32664;DHT22;19847;48.670;9.242;2022-09-16T12:56:57;16.90;99.90
32664;DHT22;19847;48.670;9.242;2022-09-16T13:00:26;16.60;99.90
32664;DHT22;19847;48.670;9.242;2022-09-16T13:03:51;16.20;99.90
32664;DHT22;19847;48.670;9.242;2022-09-16T13:07:20;16.00;99.90
32664;DHT22;19847;48.670;9.242;2022-09-16T13:10:42;15.80;99.90
32664;DHT22;19847;48.670;9.242;2022-09-16T13:14:26;15.70;99.90
32664;DHT22;19847;48.670;9.242;2022-09-16T13:17:49;16.00;99.90
32664;DHT22;19847;48.670;9.242;2022-09-16T13:21:23;16.10;99.90
32664;DHT22;19847;48.670;9.242;2022-09-16T13:24:46;16.60;99.90
32664;DHT22;19847;48.670;9.242;2022-09-16T13:28:21;16.80;99.90
32664;DHT22;19847;48.670;9.242;2022-09-16T13:31:45;16.90;99.90
32664;DHT22;19847;48.670;9.242;2022-09-16T13:35:20;17.10;99.90
32664;DHT22;19847;48.670;9.242;2022-09-16T13:38:44;17.20;99.90
32664;DHT22;19847;48.670;9.242;2022-09-16T13:42:15;17.40;99.90
32664;DHT22;19847;48.670;9.242;2022-09-16T13:45:38;17.60;99.90
32664;DHT22;19847;48.670;9.242;2022-09-16T13:49:14;17.70;99.90
32664;DHT22;19847;48.670;9.242;2022-09-16T13:52:37;17.60;99.90
32664;DHT22;19847;48.670;9.242;2022-09-16T13:56:03;17.30;99.90
32664;DHT22;19847;48.670;9.242;2022-09-16T13:59:34;17.00;99.90
32664;DHT22;19847;48.670;9.242;2022-09-16T14:06:44;16.70;99.90
32664;DHT22;19847;48.670;9.242;2022-09-16T14:10:09;16.80;99.90
32664;DHT22;19847;48.670;9.242;2022-09-16T14:13:35;16.90;99.90
32664;DHT22;19847;48.670;9.242;2022-09-16T14:16:59;16.80;99.90
32664;DHT22;19847;48.670;9.242;2022-09-16T14:20:22;16.50;99.90
32664;DHT22;19847;48.670;9.242;2022-09-16T14:23:45;16.50;99.90
32664;DHT22;19847;48.670;9.242;2022-09-16T14:27:17;16.40;99.90
32664;DHT22;19847;48.670;9.242;2022-09-16T14:30:45;16.60;99.90
32664;DHT22;19847;48.670;9.242;2022-09-16T14:34:07;16.70;99.90
32664;DHT22;19847;48.670;9.242;2022-09-16T14:37:29;16.40;99.90
32664;DHT22;19847;48.670;9.242;2022-09-16T14:40:51;16.20;99.90
32664;DHT22;19847;48.670;9.242;2022-09-16T14:44:16;16.10;99.90
32664;DHT22;19847;48.670;9.242;2022-09-16T14:47:43;16.20;99.90
32664;DHT22;19847;48.670;9.242;2022-09-16T14:51:15;16.50;99.90
32664;DHT22;19847;48.670;9.242;2022-09-16T14:54:42;16.80;99.90
32664;DHT22;19847;48.670;9.242;2022-09-16T14:58:04;17.20;99.90
32664;DHT22;19847;48.670;9.242;2022-09-16T15:01:29;17.40;99.90
32664;DHT22;19847;48.670;9.242;2022-09-16T15:04:53;17.50;99.90
32664;DHT22;19847;48.670;9.242;2022-09-16T15:08:17;17.20;99.90
32664;DHT22;19847;48.670;9.242;2022-09-16T15:11:43;17.00;99.90
32664;DHT22;19847;48.670;9.242;2022-09-16T15:15:13;16.80;99.90
32664;DHT22;19847;48.670;9.242;2022-09-16T15:18:36;16.70;99.90
32664;DHT22;19847;48.670;9.242;2022-09-16T15:22:00;16.80;99.90
32664;DHT22;19847;48.670;9.242;2022-09-16T15:25:23;16.80;99.90
32664;DHT22;19847;48.670;9.242;2022-09-16T15:28:49;17.00;99.90
32664;DHT22;19847;48.670;9.242;2022-09-16T15:32:13;16.90;99.90
32664;DHT22;19847;48.670;9.242;2022-09-16T15:35:36;16.70;99.90
32664;DHT22;19847;48.670;9.242;2022-09-16T15:38:59;16.80;99.90
32664;DHT22;19847;48.670;9.242;2022-09-16T15:42:21;16.70;99.90
32664;DHT22;19847;48.670;9.242;2022-09-16T15:45:44;16.70;99.90
32664;DHT22;19847;48.670;9.242;2022-09-16T15:49:07;16.60;99.90
32664;DHT22;19847;48.670;9.242;2022-09-16T15:52:32;16.60;99.90
32664;DHT22;19847;48.670;9.242;2022-09-16T15:56:18;16.60;99.90
32664;DHT22;19847;48.670;9.242;2022-09-16T15:59:44;16.60;99.90
32664;DHT22;19847;48.670;9.242;2022-09-16T16:03:14;16.40;99.90
32664;DHT22;19847;48.670;9.242;2022-09-16T16:06:43;16.30;99.90
32664;DHT22;19847;48.670;9.242;2022-09-16T16:10:10;16.20;99.90
32664;DHT22;19847;48.670;9.242;2022-09-16T16:13:37;16.20;99.90
32664;DHT22;19847;48.670;9.242;2022-09-16T16:17:00;16.10;99.90
32664;DHT22;19847;48.670;9.242;2022-09-16T16:20:37;15.90;99.90
32664;DHT22;19847;48.670;9.242;2022-09-16T16:24:01;15.70;99.90
32664;DHT22;19847;48.670;9.242;2022-09-16T16:27:23;15.60;99.90
32664;DHT22;19847;48.670;9.242;2022-09-16T16:31:10;15.60;99.90
32664;DHT22;19847;48.670;9.242;2022-09-16T16:34:36;15.60;99.90
32664;DHT22;19847;48.670;9.242;2022-09-16T16:38:08;15.70;99.90
32664;DHT22;19847;48.670;9.242;2022-09-16T16:41:32;15.70;99.90
32664;DHT22;19847;48.670;9.242;2022-09-16T16:44:54;15.80;99.90
32664;DHT22;19847;48.670;9.242;2022-09-16T16:48:18;15.70;99.90
32664;DHT22;19847;48.670;9.242;2022-09-16T16:51:41;15.70;99.90
32664;DHT22;19847;48.670;9.242;2022-09-16T16:55:04;15.50;99.90
32664;DHT22;19847;48.670;9.242;2022-09-16T16:58:31;15.30;99.90
32664;DHT22;19847;48.670;9.242;2022-09-16T17:01:53;15.00;99.90
32664;DHT22;19847;48.670;9.242;2022-09-16T17:12:52;14.50;99.90
32664;DHT22;19847;48.670;9.242;2022-09-16T17:16:28;14.30;99.90
32664;DHT22;19847;48.670;9.242;2022-09-16T17:19:52;14.20;99.90
32664;DHT22;19847;48.670;9.242;2022-09-16T17:23:14;14.10;99.90
32664;DHT22;19847;48.670;9.242;2022-09-16T17:38:24;13.50;99.90
32664;DHT22;19847;48.670;9.242;2022-09-16T17:41:47;13.50;99.90
32664;DHT22;19847;48.670;9.242;2022-09-16T17:45:36;13.50;99.90
32664;DHT22;19847;48.670;9.242;2022-09-16T17:49:15;13.50;99.90
32664;DHT22;19847;48.670;9.242;2022-09-16T17:53:10;13.50;99.90
32664;DHT22;19847;48.670;9.242;2022-09-16T18:00:28;13.50;99.90
32664;DHT22;19847;48.670;9.242;2022-09-16T18:04:07;13.50;99.90
32664;DHT22;19847;48.670;9.242;2022-09-16T18:07:46;13.40;99.90
32664;DHT22;19847;48.670;9.242;2022-09-16T18:11:25;13.20;99.90
32664;DHT22;19847;48.670;9.242;2022-09-16T18:14:47;12.70;99.90
32664;DHT22;19847;48.670;9.242;2022-09-16T18:18:10;12.40;99.90
32664;DHT22;19847;48.670;9.242;2022-09-16T18:21:35;12.20;99.90
32664;DHT22;19847;48.670;9.242;2022-09-16T18:25:00;12.00;99.90
32664;DHT22;19847;48.670;9.242;2022-09-16T18:28:22;11.90;99.90
32664;DHT22;19847;48.670;9.242;2022-09-16T18:31:44;11.90;99.90
32664;DHT22;19847;48.670;9.242;2022-09-16T18:35:11;11.90;99.90
32664;DHT22;19847;48.670;9.242;2022-09-16T18:38:33;11.80;99.90
32664;DHT22;19847;48.670;9.242;2022-09-16T18:41:55;11.80;99.90
32664;DHT22;19847;48.670;9.242;2022-09-16T18:45:17;11.70;99.90
32664;DHT22;19847;48.670;9.242;2022-09-16T18:48:39;11.60;99.90
32664;DHT22;19847;48.670;9.242;2022-09-16T18:52:03;11.50;99.90
32664;DHT22;19847;48.670;9.242;2022-09-16T18:55:24;11.40;99.90
32664;DHT22;19847;48.670;9.242;2022-09-16T18:58:46;11.30;99.90
32664;DHT22;19847;48.670;9.242;2022-09-16T19:02:28;11.30;99.90
32664;DHT22;19847;48.670;9.242;2022-09-16T19:05:53;11.20;99.90
32664;DHT22;19847;48.670;9.242;2022-09-16T19:09:28;11.20;99.90
32664;DHT22;19847;48.670;9.242;2022-09-16T19:12:49;11.10;99.90
32664;DHT22;19847;48.670;9.242;2022-09-16T19:16:11;11.10;99.90
32664;DHT22;19847;48.670;9.242;2022-09-16T19:19:33;11.00;99.90
32664;DHT22;19847;48.670;9.242;2022-09-16T19:22:55;10.90;99.90
32664;DHT22;19847;48.670;9.242;2022-09-16T19:26:19;10.90;99.90
32664;DHT22;19847;48.670;9.242;2022-09-16T19:29:44;10.80;99.90
32664;DHT22;19847;48.670;9.242;2022-09-16T19:33:07;10.80;99.90
32664;DHT22;19847;48.670;9.242;2022-09-16T19:36:30;10.90;99.90
32664;DHT22;19847;48.670;9.242;2022-09-16T19:39:53;11.00;99.90
32664;DHT22;19847;48.670;9.242;2022-09-16T19:43:22;11.00;99.90
32664;DHT22;19847;48.670;9.242;2022-09-16T19:46:49;11.00;99.90
32664;DHT22;19847;48.670;9.242;2022-09-16T19:50:14;11.00;99.90
32664;DHT22;19847;48.670;9.242;2022-09-16T19:53:42;11.00;99.90
32664;DHT22;19847;48.670;9.242;2022-09-16T19:57:07;10.90;99.90
32664;DHT22;19847;48.670;9.242;2022-09-16T20:00:31;10.80;99.90
32664;DHT22;19847;48.670;9.242;2022-09-16T20:04:16;10.70;99.90
32664;DHT22;19847;48.670;9.242;2022-09-16T20:07:48;10.60;99.90
32664;DHT22;19847;48.670;9.242;2022-09-16T20:11:10;10.60;99.90
32664;DHT22;19847;48.670;9.242;2022-09-16T20:14:36;10.50;99.90
32664;DHT22;19847;48.670;9.242;2022-09-16T20:18:00;10.50;99.90
32664;DHT22;19847;48.670;9.242;2022-09-16T20:21:25;10.50;99.90
32664;DHT22;19847;48.670;9.242;2022-09-16T20:24:47;10.50;99.90
32664;DHT22;19847;48.670;9.242;2022-09-16T20:28:29;10.60;99.90
32664;DHT22;19847;48.670;9.242;2022-09-16T20:31:51;10.60;99.90
32664;DHT22;19847;48.670;9.242;2022-09-16T20:35:15;10.60;99.90
32664;DHT22;19847;48.670;9.242;2022-09-16T20:38:38;10.60;99.90
32664;DHT22;19847;48.670;9.242;2022-09-16T20:42:00;10.60;99.90
32664;DHT22;19847;48.670;9.242;2022-09-16T20:45:24;10.60;99.90
32664;DHT22;19847;48.670;9.242;2022-09-16T20:50:09;10.60;99.90
32664;DHT22;19847;48.670;9.242;2022-09-16T20:52:58;10.60;99.90
32664;DHT22;19847;48.670;9.242;2022-09-16T20:56:21;10.60;99.90
32664;DHT22;19847;48.670;9.242;2022-09-16T20:59:44;10.60;99.90
32664;DHT22;19847;48.670;9.242;2022-09-16T21:03:14;10.60;99.90
32664;DHT22;19847;48.670;9.242;2022-09-16T21:06:59;10.50;99.90
32664;DHT22;19847;48.670;9.242;2022-09-16T21:10:57;10.50;99.90
32664;DHT22;19847;48.670;9.242;2022-09-16T21:14:37;10.40;99.90
32664;DHT22;19847;48.670;9.242;2022-09-16T21:22:05;10.40;99.90
32664;DHT22;19847;48.670;9.242;2022-09-16T21:25:33;10.40;99.90
32664;DHT22;19847;48.670;9.242;2022-09-16T21:29:22;10.50;99.90
32664;DHT22;19847;48.670;9.242;2022-09-16T21:32:46;10.50;99.90
32664;DHT22;19847;48.670;9.242;2022-09-16T21:36:25;10.60;99.90
32664;DHT22;19847;48.670;9.242;2022-09-16T21:39:53;10.60;99.90
32664;DHT22;19847;48.670;9.242;2022-09-16T21:43:30;10.60;99.90
32664;DHT22;19847;48.670;9.242;2022-09-16T21:51:06;10.60;99.90
32664;DHT22;19847;48.670;9.242;2022-09-16T21:54:56;10.60;99.90
32664;DHT22;19847;48.670;9.242;2022-09-16T21:58:35;10.50;99.90
32664;DHT22;19847;48.670;9.242;2022-09-16T22:02:08;10.50;99.90
32664;DHT22;19847;48.670;9.242;2022-09-16T22:05:40;10.40;99.90
32664;DHT22;19847;48.670;9.242;2022-09-16T22:17:09;10.20;99.90
32664;DHT22;19847;48.670;9.242;2022-09-16T22:20:31;10.10;99.90
32664;DHT22;19847;48.670;9.242;2022-09-16T22:23:53;10.10;99.90
32664;DHT22;19847;48.670;9.242;2022-09-16T22:27:15;10.00;99.90
32664;DHT22;19847;48.670;9.242;2022-09-16T22:30:37;10.10;99.90
32664;DHT22;19847;48.670;9.242;2022-09-16T22:34:00;10.10;99.90
32664;DHT22;19847;48.670;9.242;2022-09-16T22:37:22;10.20;99.90